createdAt,value
2017-05-30T00:00:18.528Z,66.12
2017-05-30T00:01:19.143Z,65.96
2017-05-30T00:02:19.761Z,66.02
2017-05-30T00:03:20.371Z,66.25
2017-05-30T00:04:20.984Z,66.69
2017-05-30T00:05:21.605Z,66.31
2017-05-30T00:06:22.218Z,66.50
2017-05-30T00:07:22.833Z,66.31
2017-05-30T00:08:23.449Z,66.22
2017-05-30T00:09:24.063Z,66.69
2017-05-30T00:10:24.680Z,66.22
2017-05-30T00:11:25.302Z,66.50
2017-05-30T00:12:25.908Z,66.60
2017-05-30T00:13:26.528Z,66.31
2017-05-30T00:14:27.145Z,66.69
2017-05-30T00:15:27.757Z,66.69
2017-05-30T00:16:28.372Z,66.22
2017-05-30T00:17:28.992Z,66.12
2017-05-30T00:18:29.611Z,66.60
2017-05-30T00:19:30.227Z,66.69
2017-05-30T00:20:30.845Z,66.69
2017-05-30T00:21:31.457Z,66.69
2017-05-30T00:22:32.075Z,67.55
2017-05-30T00:23:32.690Z,66.60
2017-05-30T00:24:33.305Z,66.78
2017-05-30T00:25:33.919Z,66.98
2017-05-30T00:26:34.534Z,66.88
2017-05-30T00:27:35.148Z,67.07
2017-05-30T00:28:35.767Z,66.41
2017-05-30T00:29:36.415Z,67.36
2017-05-30T00:30:37.079Z,66.88
2017-05-30T00:31:37.696Z,66.98
2017-05-30T00:32:38.315Z,67.07
2017-05-30T00:33:38.932Z,66.88
2017-05-30T00:34:39.542Z,66.78
2017-05-30T00:35:40.158Z,66.50
2017-05-30T00:36:40.803Z,66.41
2017-05-30T00:37:41.422Z,66.60
2017-05-30T00:38:42.033Z,66.78
2017-05-30T00:39:42.653Z,66.31
2017-05-30T00:40:43.266Z,66.69
2017-05-30T00:41:43.883Z,66.50
2017-05-30T00:42:44.497Z,66.63
2017-05-30T00:43:45.110Z,66.63
2017-05-30T00:44:45.726Z,66.72
2017-05-30T00:45:46.390Z,66.63
2017-05-30T00:46:47.003Z,66.63
2017-05-30T00:47:47.655Z,66.72
2017-05-30T00:48:48.308Z,66.25
2017-05-30T00:49:48.960Z,66.53
2017-05-30T00:50:49.621Z,66.50
2017-05-30T00:51:50.243Z,66.78
2017-05-30T00:52:50.855Z,66.41
2017-05-30T00:53:51.470Z,66.25
2017-05-30T00:54:52.090Z,66.31
2017-05-30T00:55:52.788Z,66.50
2017-05-30T00:56:53.402Z,66.50
2017-05-30T00:57:54.047Z,66.22
2017-05-30T00:58:54.661Z,66.41
2017-05-30T00:59:55.281Z,66.31
2017-05-30T01:00:55.894Z,66.41
2017-05-30T01:01:56.509Z,66.31
2017-05-30T01:02:57.128Z,66.35
2017-05-30T01:03:57.741Z,66.50
2017-05-30T01:04:58.355Z,66.41
2017-05-30T01:05:59.020Z,66.22
2017-05-30T01:06:59.641Z,66.69
2017-05-30T01:08:00.289Z,66.60
2017-05-30T01:09:00.903Z,66.41
2017-05-30T01:10:01.520Z,66.50
2017-05-30T01:11:02.185Z,66.69
2017-05-30T01:12:02.802Z,66.69
2017-05-30T01:13:03.416Z,66.50
2017-05-30T01:14:04.031Z,66.41
2017-05-30T01:15:04.678Z,66.60
2017-05-30T01:16:05.343Z,66.12
2017-05-30T01:17:05.962Z,66.60
2017-05-30T01:18:06.587Z,66.60
2017-05-30T01:19:07.204Z,66.41
2017-05-30T01:20:07.817Z,66.02
2017-05-30T01:21:08.464Z,66.12
2017-05-30T01:22:09.078Z,66.12
2017-05-30T01:23:09.699Z,65.93
2017-05-30T01:24:10.314Z,66.02
2017-05-30T01:25:10.970Z,66.12
2017-05-30T01:26:11.664Z,66.02
2017-05-30T01:27:12.280Z,66.02
2017-05-30T01:28:12.927Z,65.93
2017-05-30T01:29:13.549Z,66.12
2017-05-30T01:30:14.162Z,66.31
2017-05-30T01:31:14.780Z,66.22
2017-05-30T01:32:15.397Z,66.41
2017-05-30T01:33:16.007Z,65.83
2017-05-30T01:34:16.621Z,66.12
2017-05-30T01:35:17.240Z,65.93
2017-05-30T01:36:17.903Z,65.64
2017-05-30T01:37:18.521Z,65.64
2017-05-30T01:38:19.134Z,65.74
2017-05-30T01:39:19.751Z,65.64
2017-05-30T01:40:20.365Z,65.45
2017-05-30T01:41:20.980Z,65.74
2017-05-30T01:42:21.594Z,65.93
2017-05-30T01:43:22.245Z,65.64
2017-05-30T01:44:22.857Z,65.93
2017-05-30T01:45:23.477Z,65.64
2017-05-30T01:46:24.139Z,65.93
2017-05-30T01:47:24.754Z,65.74
2017-05-30T01:48:25.370Z,65.64
2017-05-30T01:49:25.988Z,66.50
2017-05-30T01:50:26.605Z,66.50
2017-05-30T01:51:27.218Z,66.22
2017-05-30T01:52:27.864Z,66.22
2017-05-30T01:53:28.477Z,66.31
2017-05-30T01:54:29.098Z,66.22
2017-05-30T01:55:29.711Z,66.22
2017-05-30T01:56:30.376Z,66.12
2017-05-30T01:57:30.991Z,66.22
2017-05-30T01:58:31.611Z,66.22
2017-05-30T01:59:32.223Z,66.22
2017-05-30T02:00:32.838Z,66.22
2017-05-30T02:01:33.504Z,66.41
2017-05-30T02:02:34.119Z,66.22
2017-05-30T02:03:34.734Z,66.02
2017-05-30T02:04:35.348Z,66.12
2017-05-30T02:05:35.962Z,66.22
2017-05-30T02:06:36.575Z,66.69
2017-05-30T02:07:37.189Z,66.50
2017-05-30T02:08:37.806Z,66.41
2017-05-30T02:09:38.421Z,66.22
2017-05-30T02:10:39.071Z,66.02
2017-05-30T02:11:39.768Z,66.78
2017-05-30T02:12:40.382Z,66.69
2017-05-30T02:13:41.001Z,66.47
2017-05-30T02:14:41.654Z,66.41
2017-05-30T02:15:42.266Z,65.99
2017-05-30T02:16:42.882Z,66.28
2017-05-30T02:17:43.527Z,66.12
2017-05-30T02:18:44.175Z,65.89
2017-05-30T02:19:44.788Z,66.38
2017-05-30T02:20:45.408Z,66.09
2017-05-30T02:21:46.018Z,66.09
2017-05-30T02:22:46.633Z,65.99
2017-05-30T02:23:47.248Z,66.18
2017-05-30T02:24:47.864Z,66.56
2017-05-30T02:25:48.485Z,66.18
2017-05-30T02:26:49.095Z,66.18
2017-05-30T02:27:49.714Z,66.18
2017-05-30T02:28:50.325Z,66.18
2017-05-30T02:29:50.939Z,66.28
2017-05-30T02:30:51.559Z,66.38
2017-05-30T02:31:52.255Z,65.70
2017-05-30T02:32:52.870Z,65.52
2017-05-30T02:33:53.488Z,65.70
2017-05-30T02:34:54.101Z,65.61
2017-05-30T02:35:54.713Z,65.70
2017-05-30T02:36:55.328Z,65.70
2017-05-30T02:37:55.944Z,65.61
2017-05-30T02:38:56.556Z,65.52
2017-05-30T02:39:57.203Z,65.61
2017-05-30T02:40:57.815Z,65.61
2017-05-30T02:41:58.429Z,65.70
2017-05-30T02:42:59.041Z,65.70
2017-05-30T02:43:59.694Z,65.89
2017-05-30T02:45:00.310Z,65.89
2017-05-30T02:46:00.927Z,65.89
2017-05-30T02:47:01.590Z,65.61
2017-05-30T02:48:02.245Z,65.89
2017-05-30T02:49:02.866Z,65.70
2017-05-30T02:50:03.516Z,65.89
2017-05-30T02:51:04.160Z,65.89
2017-05-30T02:52:04.822Z,65.89
2017-05-30T02:53:05.437Z,65.70
2017-05-30T02:54:06.050Z,65.80
2017-05-30T02:55:06.669Z,65.80
2017-05-30T02:56:07.282Z,66.09
2017-05-30T02:57:07.949Z,65.99
2017-05-30T02:58:08.563Z,66.47
2017-05-30T02:59:09.178Z,66.56
2017-05-30T03:00:09.797Z,66.94
2017-05-30T03:01:10.408Z,66.75
2017-05-30T03:02:11.023Z,67.33
2017-05-30T03:03:11.647Z,66.94
2017-05-30T03:04:12.256Z,67.39
2017-05-30T03:05:12.869Z,67.10
2017-05-30T03:06:13.482Z,67.52
2017-05-30T03:07:14.103Z,67.52
2017-05-30T03:08:14.749Z,67.42
2017-05-30T03:09:15.363Z,67.42
2017-05-30T03:10:15.979Z,67.42
2017-05-30T03:11:16.622Z,66.85
2017-05-30T03:12:17.235Z,66.94
2017-05-30T03:13:17.855Z,66.75
2017-05-30T03:14:18.500Z,67.14
2017-05-30T03:15:19.113Z,67.04
2017-05-30T03:16:19.725Z,67.14
2017-05-30T03:17:20.341Z,66.66
2017-05-30T03:18:20.956Z,67.14
2017-05-30T03:19:21.570Z,66.94
2017-05-30T03:20:22.191Z,66.66
2017-05-30T03:21:22.802Z,67.14
2017-05-30T03:22:23.466Z,66.85
2017-05-30T03:23:24.078Z,66.47
2017-05-30T03:24:24.693Z,66.47
2017-05-30T03:25:25.309Z,66.94
2017-05-30T03:26:25.929Z,66.85
2017-05-30T03:27:26.590Z,66.75
2017-05-30T03:28:27.203Z,66.85
2017-05-30T03:29:27.821Z,67.04
2017-05-30T03:30:28.432Z,67.14
2017-05-30T03:31:29.049Z,66.66
2017-05-30T03:32:29.697Z,66.75
2017-05-30T03:33:30.317Z,66.47
2017-05-30T03:34:30.930Z,66.47
2017-05-30T03:35:31.547Z,66.38
2017-05-30T03:36:32.160Z,66.47
2017-05-30T03:37:32.779Z,66.66
2017-05-30T03:38:33.390Z,66.66
2017-05-30T03:39:34.003Z,66.47
2017-05-30T03:40:34.651Z,66.47
2017-05-30T03:41:35.264Z,66.18
2017-05-30T03:42:35.883Z,66.56
2017-05-30T03:43:36.496Z,66.66
2017-05-30T03:44:37.112Z,66.47
2017-05-30T03:45:37.726Z,66.47
2017-05-30T03:46:38.374Z,66.47
2017-05-30T03:47:39.072Z,66.66
2017-05-30T03:48:39.686Z,66.66
2017-05-30T03:49:40.301Z,66.66
2017-05-30T03:50:40.915Z,66.56
2017-05-30T03:51:41.529Z,67.04
2017-05-30T03:52:42.143Z,66.75
2017-05-30T03:53:42.757Z,66.75
2017-05-30T03:54:43.403Z,66.66
2017-05-30T03:55:44.016Z,66.94
2017-05-30T03:56:44.636Z,67.29
2017-05-30T03:57:45.335Z,66.34
2017-05-30T03:58:45.957Z,67.29
2017-05-30T03:59:46.568Z,67.10
2017-05-30T04:00:47.186Z,67.29
2017-05-30T04:01:47.801Z,67.10
2017-05-30T04:02:48.414Z,67.29
2017-05-30T04:03:49.037Z,67.20
2017-05-30T04:04:49.650Z,67.58
2017-05-30T04:05:50.267Z,67.58
2017-05-30T04:06:50.881Z,67.29
2017-05-30T04:07:51.496Z,67.48
2017-05-30T04:08:52.110Z,67.29
2017-05-30T04:09:52.731Z,67.39
2017-05-30T04:10:53.345Z,67.42
2017-05-30T04:11:53.961Z,67.52
2017-05-30T04:12:54.610Z,67.33
2017-05-30T04:13:55.226Z,67.20
2017-05-30T04:14:55.840Z,67.39
2017-05-30T04:15:56.487Z,67.20
2017-05-30T04:16:57.102Z,67.00
2017-05-30T04:17:57.717Z,66.94
2017-05-30T04:18:58.339Z,67.14
2017-05-30T04:19:58.949Z,67.29
2017-05-30T04:20:59.564Z,67.52
2017-05-30T04:22:00.212Z,67.52
2017-05-30T04:23:00.879Z,67.33
2017-05-30T04:24:01.493Z,67.10
2017-05-30T04:25:02.114Z,67.58
2017-05-30T04:26:02.727Z,67.42
2017-05-30T04:27:03.346Z,67.58
2017-05-30T04:28:04.013Z,67.71
2017-05-30T04:29:04.626Z,67.52
2017-05-30T04:30:05.241Z,67.68
2017-05-30T04:31:05.856Z,67.39
2017-05-30T04:32:06.470Z,67.61
2017-05-30T04:33:07.091Z,67.96
2017-05-30T04:34:07.712Z,67.68
2017-05-30T04:35:08.367Z,67.96
2017-05-30T04:36:09.023Z,67.96
2017-05-30T04:37:09.636Z,67.68
2017-05-30T04:38:10.285Z,67.68
2017-05-30T04:39:10.906Z,67.86
2017-05-30T04:40:11.516Z,67.77
2017-05-30T04:41:12.136Z,67.77
2017-05-30T04:42:12.747Z,67.96
2017-05-30T04:43:13.413Z,67.86
2017-05-30T04:44:14.033Z,67.58
2017-05-30T04:45:14.645Z,67.58
2017-05-30T04:46:15.261Z,67.77
2017-05-30T04:47:15.876Z,67.96
2017-05-30T04:48:16.539Z,67.68
2017-05-30T04:49:17.189Z,67.96
2017-05-30T04:50:17.805Z,67.96
2017-05-30T04:51:18.425Z,67.96
2017-05-30T04:52:19.037Z,67.86
2017-05-30T04:53:19.702Z,67.86
2017-05-30T04:54:20.323Z,67.86
2017-05-30T04:55:20.936Z,67.58
2017-05-30T04:56:21.551Z,67.96
2017-05-30T04:57:22.165Z,68.15
2017-05-30T04:58:22.786Z,68.05
2017-05-30T04:59:23.399Z,68.05
2017-05-30T05:00:24.014Z,68.15
2017-05-30T05:01:24.627Z,68.15
2017-05-30T05:02:25.245Z,68.15
2017-05-30T05:03:25.917Z,67.86
2017-05-30T05:04:26.529Z,67.90
2017-05-30T05:05:27.144Z,67.99
2017-05-30T05:06:27.759Z,68.15
2017-05-30T05:07:28.373Z,68.05
2017-05-30T05:08:28.996Z,67.71
2017-05-30T05:09:29.607Z,67.52
2017-05-30T05:10:30.223Z,67.14
2017-05-30T05:11:30.843Z,67.42
2017-05-30T05:12:31.461Z,67.42
2017-05-30T05:13:32.124Z,67.42
2017-05-30T05:14:32.739Z,67.23
2017-05-30T05:15:33.352Z,67.61
2017-05-30T05:16:34.000Z,67.61
2017-05-30T05:17:34.614Z,67.52
2017-05-30T05:18:35.229Z,67.52
2017-05-30T05:19:35.850Z,67.52
2017-05-30T05:20:36.468Z,67.52
2017-05-30T05:21:37.083Z,67.52
2017-05-30T05:22:37.702Z,67.80
2017-05-30T05:23:38.364Z,67.14
2017-05-30T05:24:38.979Z,67.23
2017-05-30T05:25:39.598Z,67.23
2017-05-30T05:26:40.252Z,67.33
2017-05-30T05:27:40.864Z,67.23
2017-05-30T05:28:41.530Z,67.04
2017-05-30T05:29:42.145Z,67.42
2017-05-30T05:30:42.793Z,67.23
2017-05-30T05:31:43.409Z,66.56
2017-05-30T05:32:44.026Z,67.14
2017-05-30T05:33:44.640Z,66.66
2017-05-30T05:34:45.253Z,66.75
2017-05-30T05:35:45.871Z,66.75
2017-05-30T05:36:46.488Z,67.33
2017-05-30T05:37:47.107Z,66.75
2017-05-30T05:38:47.753Z,66.75
2017-05-30T05:39:48.402Z,66.85
2017-05-30T05:40:49.023Z,66.66
2017-05-30T05:41:49.636Z,66.88
2017-05-30T05:42:50.249Z,67.23
2017-05-30T05:43:50.869Z,67.07
2017-05-30T05:44:51.485Z,66.75
2017-05-30T05:45:52.100Z,67.17
2017-05-30T05:46:52.721Z,66.98
2017-05-30T05:47:53.333Z,66.88
2017-05-30T05:48:53.999Z,66.88
2017-05-30T05:49:54.614Z,66.88
2017-05-30T05:50:55.237Z,66.98
2017-05-30T05:51:55.850Z,66.60
2017-05-30T05:52:56.464Z,66.69
2017-05-30T05:53:57.164Z,66.41
2017-05-30T05:54:57.780Z,66.60
2017-05-30T05:55:58.402Z,66.78
2017-05-30T05:56:59.021Z,66.60
2017-05-30T05:57:59.636Z,66.69
2017-05-30T05:59:00.257Z,66.72
2017-05-30T06:00:00.871Z,66.72
2017-05-30T06:01:01.487Z,66.82
2017-05-30T06:02:02.103Z,66.63
2017-05-30T06:03:02.720Z,66.63
2017-05-30T06:04:03.386Z,66.63
2017-05-30T06:05:04.007Z,66.72
2017-05-30T06:06:04.628Z,66.44
2017-05-30T06:07:05.242Z,66.63
2017-05-30T06:08:05.865Z,66.25
2017-05-30T06:09:06.529Z,66.72
2017-05-30T06:10:07.146Z,66.72
2017-05-30T06:11:07.795Z,66.44
2017-05-30T06:12:08.414Z,66.92
2017-05-30T06:13:09.032Z,67.11
2017-05-30T06:14:09.703Z,67.01
2017-05-30T06:15:10.318Z,67.01
2017-05-30T06:16:10.967Z,67.11
2017-05-30T06:17:11.590Z,67.11
2017-05-30T06:18:12.202Z,66.82
2017-05-30T06:19:12.868Z,67.40
2017-05-30T06:20:13.485Z,66.82
2017-05-30T06:21:14.102Z,66.82
2017-05-30T06:22:14.724Z,67.40
2017-05-30T06:23:15.339Z,66.72
2017-05-30T06:24:16.005Z,66.72
2017-05-30T06:25:16.624Z,67.01
2017-05-30T06:26:17.241Z,67.01
2017-05-30T06:27:17.858Z,66.72
2017-05-30T06:28:18.481Z,67.01
2017-05-30T06:29:19.096Z,67.40
2017-05-30T06:30:19.716Z,67.01
2017-05-30T06:31:20.367Z,66.92
2017-05-30T06:32:20.989Z,66.53
2017-05-30T06:33:21.609Z,67.01
2017-05-30T06:34:22.524Z,67.30
2017-05-30T06:35:23.162Z,67.40
2017-05-30T06:36:23.804Z,67.14
2017-05-30T06:37:24.421Z,67.43
2017-05-30T06:38:25.038Z,66.85
2017-05-30T06:39:25.655Z,67.05
2017-05-30T06:40:26.273Z,67.14
2017-05-30T06:41:26.893Z,67.24
2017-05-30T06:42:27.511Z,66.76
2017-05-30T06:43:28.129Z,67.33
2017-05-30T06:44:28.796Z,66.72
2017-05-30T06:45:29.418Z,66.82
2017-05-30T06:46:30.035Z,66.82
2017-05-30T06:47:30.652Z,66.82
2017-05-30T06:48:31.270Z,67.01
2017-05-30T06:49:31.942Z,67.40
2017-05-30T06:50:32.560Z,67.11
2017-05-30T06:51:33.183Z,67.21
2017-05-30T06:52:33.799Z,66.92
2017-05-30T06:53:34.448Z,66.95
2017-05-30T06:54:35.099Z,66.95
2017-05-30T06:55:35.716Z,66.63
2017-05-30T06:56:36.339Z,66.66
2017-05-30T06:57:36.960Z,66.53
2017-05-30T06:58:37.581Z,66.53
2017-05-30T06:59:38.252Z,66.44
2017-05-30T07:00:38.867Z,66.53
2017-05-30T07:01:39.489Z,66.72
2017-05-30T07:02:40.110Z,66.44
2017-05-30T07:03:40.731Z,66.92
2017-05-30T07:04:41.396Z,66.53
2017-05-30T07:05:42.015Z,66.63
2017-05-30T07:06:42.632Z,66.72
2017-05-30T07:07:43.251Z,67.40
2017-05-30T07:08:43.869Z,66.92
2017-05-30T07:09:44.541Z,67.43
2017-05-30T07:10:45.194Z,66.95
2017-05-30T07:11:45.812Z,66.76
2017-05-30T07:12:46.431Z,67.05
2017-05-30T07:13:47.049Z,66.85
2017-05-30T07:14:47.671Z,67.24
2017-05-30T07:15:48.287Z,66.95
2017-05-30T07:16:48.904Z,66.66
2017-05-30T07:17:49.523Z,66.66
2017-05-30T07:18:50.173Z,66.47
2017-05-30T07:19:50.824Z,66.76
2017-05-30T07:20:51.442Z,66.19
2017-05-30T07:21:52.092Z,66.00
2017-05-30T07:22:52.710Z,66.22
2017-05-30T07:23:53.329Z,66.41
2017-05-30T07:24:53.956Z,65.74
2017-05-30T07:25:54.570Z,65.93
2017-05-30T07:26:55.187Z,65.84
2017-05-30T07:27:55.804Z,65.84
2017-05-30T07:28:56.422Z,66.03
2017-05-30T07:29:57.089Z,66.41
2017-05-30T07:30:57.711Z,66.83
2017-05-30T07:31:58.328Z,66.41
2017-05-30T07:32:58.947Z,66.63
2017-05-30T07:33:59.564Z,66.73
2017-05-30T07:35:00.182Z,66.63
2017-05-30T07:36:00.801Z,66.63
2017-05-30T07:37:01.421Z,66.73
2017-05-30T07:38:02.037Z,66.35
2017-05-30T07:39:02.688Z,65.87
2017-05-30T07:40:03.357Z,65.39
2017-05-30T07:41:03.974Z,65.39
2017-05-30T07:42:04.594Z,65.01
2017-05-30T07:43:05.219Z,65.20
2017-05-30T07:44:05.833Z,65.30
2017-05-30T07:45:06.458Z,65.14
2017-05-30T07:46:07.078Z,65.01
2017-05-30T07:47:07.695Z,65.20
2017-05-30T07:48:08.313Z,64.95
2017-05-30T07:49:08.937Z,65.01
2017-05-30T07:50:09.589Z,65.11
2017-05-30T07:51:10.241Z,65.71
2017-05-30T07:52:10.860Z,65.33
2017-05-30T07:53:11.477Z,65.23
2017-05-30T07:54:12.096Z,65.52
2017-05-30T07:55:12.721Z,65.71
2017-05-30T07:56:13.337Z,65.42
2017-05-30T07:57:13.960Z,64.85
2017-05-30T07:58:14.581Z,65.04
2017-05-30T07:59:15.238Z,65.26
2017-05-30T08:00:15.911Z,65.26
2017-05-30T08:01:16.527Z,65.08
2017-05-30T08:02:17.153Z,64.40
2017-05-30T08:03:17.768Z,64.88
2017-05-30T08:04:18.388Z,65.55
2017-05-30T08:05:19.207Z,65.45
2017-05-30T08:06:19.829Z,65.26
2017-05-30T08:07:20.447Z,65.36
2017-05-30T08:08:21.066Z,65.08
2017-05-30T08:09:21.683Z,65.26
2017-05-30T08:10:22.352Z,65.45
2017-05-30T08:11:22.972Z,65.45
2017-05-30T08:12:23.595Z,65.45
2017-05-30T08:13:24.245Z,65.39
2017-05-30T08:14:24.865Z,65.39
2017-05-30T08:15:25.522Z,65.20
2017-05-30T08:16:26.135Z,65.30
2017-05-30T08:17:26.754Z,65.20
2017-05-30T08:18:27.377Z,64.43
2017-05-30T08:19:27.995Z,65.01
2017-05-30T08:20:28.913Z,64.53
2017-05-30T08:21:29.538Z,64.43
2017-05-30T08:22:30.159Z,64.34
2017-05-30T08:23:30.790Z,64.43
2017-05-30T08:24:31.395Z,64.25
2017-05-30T08:25:32.065Z,64.34
2017-05-30T08:26:32.683Z,64.59
2017-05-30T08:27:33.304Z,64.88
2017-05-30T08:28:33.924Z,64.88
2017-05-30T08:29:34.543Z,64.88
2017-05-30T08:30:35.214Z,64.69
2017-05-30T08:31:35.832Z,65.17
2017-05-30T08:32:36.453Z,64.79
2017-05-30T08:33:37.078Z,65.08
2017-05-30T08:34:37.695Z,64.79
2017-05-30T08:35:38.313Z,64.50
2017-05-30T08:36:38.932Z,64.85
2017-05-30T08:37:39.553Z,64.79
2017-05-30T08:38:40.171Z,65.55
2017-05-30T08:39:40.790Z,65.26
2017-05-30T08:40:41.410Z,65.17
2017-05-30T08:41:42.029Z,64.72
2017-05-30T08:42:42.679Z,64.82
2017-05-30T08:43:43.298Z,64.63
2017-05-30T08:44:43.918Z,63.96
2017-05-30T08:45:44.589Z,63.96
2017-05-30T08:46:45.215Z,64.12
2017-05-30T08:47:45.836Z,64.40
2017-05-30T08:48:46.455Z,64.50
2017-05-30T08:49:47.075Z,64.02
2017-05-30T08:50:47.777Z,64.53
2017-05-30T08:51:48.398Z,64.53
2017-05-30T08:52:49.019Z,64.92
2017-05-30T08:53:49.636Z,63.96
2017-05-30T08:54:50.258Z,63.76
2017-05-30T08:55:50.876Z,63.86
2017-05-30T08:56:51.495Z,63.96
2017-05-30T08:57:52.114Z,64.05
2017-05-30T08:58:52.770Z,63.86
2017-05-30T08:59:53.393Z,64.18
2017-05-30T09:00:54.312Z,63.99
2017-05-30T09:01:54.931Z,63.89
2017-05-30T09:02:55.550Z,63.22
2017-05-30T09:03:56.171Z,63.13
2017-05-30T09:04:56.790Z,63.60
2017-05-30T09:05:57.459Z,63.22
2017-05-30T09:06:58.079Z,63.22
2017-05-30T09:07:58.699Z,63.51
2017-05-30T09:08:59.325Z,63.03
2017-05-30T09:09:59.942Z,63.03
2017-05-30T09:11:00.621Z,62.93
2017-05-30T09:12:01.237Z,63.51
2017-05-30T09:13:01.857Z,63.89
2017-05-30T09:14:02.476Z,64.18
2017-05-30T09:15:03.098Z,63.32
2017-05-30T09:16:03.918Z,61.88
2017-05-30T09:17:04.577Z,62.46
2017-05-30T09:18:05.194Z,61.98
2017-05-30T09:19:05.815Z,62.71
2017-05-30T09:20:06.441Z,64.25
2017-05-30T09:21:07.062Z,64.85
2017-05-30T09:22:07.682Z,64.95
2017-05-30T09:23:08.301Z,64.56
2017-05-30T09:24:08.927Z,65.17
2017-05-30T09:25:09.546Z,64.31
2017-05-30T09:26:10.217Z,64.22
2017-05-30T09:27:10.840Z,64.15
2017-05-30T09:28:11.458Z,63.67
2017-05-30T09:29:12.078Z,63.48
2017-05-30T09:30:12.697Z,62.90
2017-05-30T09:31:13.322Z,61.94
2017-05-30T09:32:13.946Z,62.52
2017-05-30T09:33:14.564Z,62.71
2017-05-30T09:34:15.186Z,62.62
2017-05-30T09:35:15.811Z,62.62
2017-05-30T09:36:16.434Z,63.09
2017-05-30T09:37:17.053Z,63.09
2017-05-30T09:38:17.674Z,63.12
2017-05-30T09:39:18.294Z,63.03
2017-05-30T09:40:18.917Z,62.65
2017-05-30T09:41:19.588Z,62.74
2017-05-30T09:42:20.212Z,63.12
2017-05-30T09:43:20.871Z,62.65
2017-05-30T09:44:21.489Z,62.84
2017-05-30T09:45:22.141Z,62.68
2017-05-30T09:46:22.762Z,61.91
2017-05-30T09:47:23.383Z,62.19
2017-05-30T09:48:24.010Z,62.29
2017-05-30T09:49:24.630Z,62.29
2017-05-30T09:50:25.250Z,61.52
2017-05-30T09:51:25.925Z,61.24
2017-05-30T09:52:26.545Z,61.43
2017-05-30T09:53:27.165Z,61.40
2017-05-30T09:54:27.792Z,60.05
2017-05-30T09:55:28.409Z,59.19
2017-05-30T09:56:29.030Z,59.06
2017-05-30T09:57:29.652Z,60.89
2017-05-30T09:58:30.274Z,61.08
2017-05-30T09:59:30.894Z,61.37
2017-05-30T10:00:31.515Z,61.37
2017-05-30T10:01:32.136Z,61.75
2017-05-30T10:02:32.756Z,62.74
2017-05-30T10:03:33.378Z,61.78
2017-05-30T10:04:34.004Z,62.07
2017-05-30T10:05:34.624Z,62.26
2017-05-30T10:06:35.294Z,61.98
2017-05-30T10:07:35.914Z,61.21
2017-05-30T10:08:36.568Z,60.92
2017-05-30T10:09:37.190Z,61.30
2017-05-30T10:10:37.811Z,61.33
2017-05-30T10:11:38.484Z,60.38
2017-05-30T10:12:39.110Z,60.15
2017-05-30T10:13:39.731Z,59.96
2017-05-30T10:14:40.388Z,60.44
2017-05-30T10:15:41.007Z,60.82
2017-05-30T10:16:41.678Z,60.92
2017-05-30T10:17:42.331Z,61.02
2017-05-30T10:18:42.957Z,60.99
2017-05-30T10:19:43.575Z,60.41
2017-05-30T10:20:44.204Z,59.74
2017-05-30T10:21:44.822Z,60.09
2017-05-30T10:22:45.449Z,61.05
2017-05-30T10:23:46.065Z,61.53
2017-05-30T10:24:46.686Z,61.24
2017-05-30T10:25:47.308Z,61.15
2017-05-30T10:26:47.978Z,61.75
2017-05-30T10:27:48.598Z,61.18
2017-05-30T10:28:49.219Z,61.18
2017-05-30T10:29:49.840Z,61.46
2017-05-30T10:30:50.463Z,61.08
2017-05-30T10:31:51.083Z,60.99
2017-05-30T10:32:51.704Z,60.89
2017-05-30T10:33:52.356Z,60.89
2017-05-30T10:34:52.976Z,60.12
2017-05-30T10:35:53.597Z,59.06
2017-05-30T10:36:54.218Z,59.06
2017-05-30T10:37:54.840Z,58.97
2017-05-30T10:38:55.460Z,58.97
2017-05-30T10:39:56.088Z,58.49
2017-05-30T10:40:56.707Z,57.63
2017-05-30T10:41:57.628Z,58.69
2017-05-30T10:42:58.256Z,58.87
2017-05-30T10:43:58.875Z,59.36
2017-05-30T10:44:59.495Z,59.45
2017-05-30T10:46:00.115Z,58.87
2017-05-30T10:47:00.793Z,58.97
2017-05-30T10:48:01.410Z,58.78
2017-05-30T10:49:02.031Z,59.16
2017-05-30T10:50:02.657Z,58.91
2017-05-30T10:51:03.275Z,58.62
2017-05-30T10:52:03.948Z,59.29
2017-05-30T10:53:04.570Z,58.91
2017-05-30T10:54:05.192Z,59.41
2017-05-30T10:55:05.814Z,59.80
2017-05-30T10:56:06.465Z,59.22
2017-05-30T10:57:07.338Z,59.73
2017-05-30T10:58:07.966Z,59.83
2017-05-30T10:59:08.593Z,59.06
2017-05-30T11:00:09.218Z,58.42
2017-05-30T11:01:09.835Z,58.77
2017-05-30T11:02:10.463Z,58.10
2017-05-30T11:03:11.081Z,57.81
2017-05-30T11:04:11.709Z,58.00
2017-05-30T11:05:12.334Z,58.77
2017-05-30T11:06:12.955Z,59.54
2017-05-30T11:07:13.778Z,58.39
2017-05-30T11:08:14.404Z,58.13
2017-05-30T11:09:15.030Z,58.22
2017-05-30T11:10:15.648Z,58.25
2017-05-30T11:11:16.274Z,57.48
2017-05-30T11:12:16.946Z,57.75
2017-05-30T11:13:17.573Z,57.29
2017-05-30T11:14:18.192Z,56.88
2017-05-30T11:15:18.813Z,56.91
2017-05-30T11:16:19.437Z,56.68
2017-05-30T11:17:20.116Z,56.40
2017-05-30T11:18:20.735Z,57.04
2017-05-30T11:19:21.356Z,56.56
2017-05-30T11:20:21.985Z,56.66
2017-05-30T11:21:22.606Z,56.66
2017-05-30T11:22:23.227Z,57.33
2017-05-30T11:23:23.849Z,57.81
2017-05-30T11:24:24.473Z,57.93
2017-05-30T11:25:25.093Z,57.26
2017-05-30T11:26:25.715Z,57.48
2017-05-30T11:27:26.387Z,56.52
2017-05-30T11:28:27.008Z,54.69
2017-05-30T11:29:27.631Z,55.05
2017-05-30T11:30:28.262Z,54.77
2017-05-30T11:31:28.887Z,54.38
2017-05-30T11:32:29.506Z,55.32
2017-05-30T11:33:30.127Z,55.41
2017-05-30T11:34:30.754Z,56.18
2017-05-30T11:35:31.380Z,56.88
2017-05-30T11:36:32.004Z,56.46
2017-05-30T11:37:32.674Z,55.51
2017-05-30T11:38:33.297Z,55.69
2017-05-30T11:39:33.919Z,55.29
2017-05-30T11:40:34.548Z,56.15
2017-05-30T11:41:35.208Z,56.24
2017-05-30T11:42:35.877Z,56.92
2017-05-30T11:43:36.500Z,57.30
2017-05-30T11:44:37.161Z,56.92
2017-05-30T11:45:37.780Z,57.18
2017-05-30T11:46:38.401Z,57.50
2017-05-30T11:47:39.022Z,57.78
2017-05-30T11:48:39.644Z,57.95
2017-05-30T11:49:40.265Z,57.78
2017-05-30T11:50:40.889Z,57.40
2017-05-30T11:51:41.510Z,57.43
2017-05-30T11:52:42.181Z,57.43
2017-05-30T11:53:42.834Z,57.43
2017-05-30T11:54:43.455Z,57.14
2017-05-30T11:55:44.076Z,56.66
2017-05-30T11:56:44.699Z,55.53
2017-05-30T11:57:45.329Z,55.32
2017-05-30T11:58:45.982Z,55.32
2017-05-30T11:59:46.604Z,55.41
2017-05-30T12:00:47.226Z,54.93
2017-05-30T12:01:47.846Z,54.74
2017-05-30T12:02:48.469Z,54.35
2017-05-30T12:03:49.091Z,54.13
2017-05-30T12:04:49.748Z,54.23
2017-05-30T12:05:50.369Z,54.42
2017-05-30T12:06:50.991Z,54.33
2017-05-30T12:07:51.612Z,54.33
2017-05-30T12:08:52.233Z,54.71
2017-05-30T12:09:52.861Z,54.71
2017-05-30T12:10:53.479Z,54.71
2017-05-30T12:11:54.100Z,55.19
2017-05-30T12:12:54.754Z,54.80
2017-05-30T12:13:55.377Z,54.42
2017-05-30T12:14:56.005Z,54.42
2017-05-30T12:15:56.626Z,54.33
2017-05-30T12:16:57.248Z,54.42
2017-05-30T12:17:57.921Z,54.61
2017-05-30T12:18:58.543Z,54.71
2017-05-30T12:19:59.169Z,55.19
2017-05-30T12:20:59.789Z,54.42
2017-05-30T12:22:00.416Z,54.23
2017-05-30T12:23:01.036Z,54.23
2017-05-30T12:24:01.768Z,54.04
2017-05-30T12:25:02.425Z,53.85
2017-05-30T12:26:03.048Z,54.23
2017-05-30T12:27:03.677Z,54.25
2017-05-30T12:28:04.372Z,53.20
2017-05-30T12:29:05.001Z,53.80
2017-05-30T12:30:05.618Z,53.61
2017-05-30T12:31:06.240Z,51.69
2017-05-30T12:32:06.862Z,50.34
2017-05-30T12:33:07.488Z,50.32
2017-05-30T12:34:08.112Z,51.28
2017-05-30T12:35:08.731Z,51.67
2017-05-30T12:36:09.359Z,51.64
2017-05-30T12:37:09.977Z,51.25
2017-05-30T12:38:10.601Z,52.24
2017-05-30T12:39:11.229Z,52.81
2017-05-30T12:40:11.854Z,53.20
2017-05-30T12:41:12.473Z,52.84
2017-05-30T12:42:13.096Z,52.65
2017-05-30T12:43:13.767Z,52.26
2017-05-30T12:44:14.390Z,52.29
2017-05-30T12:45:15.011Z,52.29
2017-05-30T12:46:15.641Z,51.72
2017-05-30T12:47:16.260Z,51.04
2017-05-30T12:48:16.882Z,50.76
2017-05-30T12:49:17.507Z,50.85
2017-05-30T12:50:18.130Z,50.95
2017-05-30T12:51:18.753Z,50.92
2017-05-30T12:52:19.375Z,51.11
2017-05-30T12:53:20.053Z,51.59
2017-05-30T12:54:20.678Z,51.43
2017-05-30T12:55:21.298Z,52.08
2017-05-30T12:56:21.920Z,51.50
2017-05-30T12:57:22.541Z,50.82
2017-05-30T12:58:23.215Z,51.57
2017-05-30T12:59:23.839Z,51.57
2017-05-30T13:00:24.460Z,52.24